sensor_id;sensor_type;location;lat;lon;timestamp;P1;P2;P0
45788;PMS7003;31492;54.856;26.318;2023-05-10T00:01:17;7.4;6.3;5
45788;PMS7003;31492;54.856;26.318;2023-05-10T00:06:17;7.5;6.3;5.1
45788;PMS7003;31492;54.856;26.318;2023-05-10T00:11:29;7;6.1;5
45788;PMS7003;31492;54.856;26.318;2023-05-10T00:16:27;7.4;6.2;5
45788;PMS7003;31492;54.856;26.318;2023-05-10T00:21:31;7.9;6.5;5.3
45788;PMS7003;31492;54.856;26.318;2023-05-10T00:26:25;6.9;5.9;4.7
45788;PMS7003;31492;54.856;26.318;2023-05-10T00:31:17;7.3;6.2;5.1
45788;PMS7003;31492;54.856;26.318;2023-05-10T00:36:29;7.5;6.6;5.3
45788;PMS7003;31492;54.856;26.318;2023-05-10T00:41:17;7.6;6;4.8
45788;PMS7003;31492;54.856;26.318;2023-05-10T00:46:27;8;6.4;5.1
45788;PMS7003;31492;54.856;26.318;2023-05-10T00:51:17;6.8;5.9;4.6
45788;PMS7003;31492;54.856;26.318;2023-05-10T00:56:17;6.8;6;5
45788;PMS7003;31492;54.856;26.318;2023-05-10T01:01:51;7.3;5.9;4.8
45788;PMS7003;31492;54.856;26.318;2023-05-10T01:06:17;7.6;6.8;5.1
45788;PMS7003;31492;54.856;26.318;2023-05-10T01:11:23;8.7;6.5;5.4
45788;PMS7003;31492;54.856;26.318;2023-05-10T01:16:17;7;6.1;4.9
45788;PMS7003;31492;54.856;26.318;2023-05-10T01:21:31;8;6.4;5.1
45788;PMS7003;31492;54.856;26.318;2023-05-10T01:26:34;7.4;6.9;5.5
45788;PMS7003;31492;54.856;26.318;2023-05-10T01:31:22;8;7.1;5.4
45788;PMS7003;31492;54.856;26.318;2023-05-10T01:36:30;7.8;6.9;5.3
45788;PMS7003;31492;54.856;26.318;2023-05-10T01:41:18;7.5;6.3;5.3
45788;PMS7003;31492;54.856;26.318;2023-05-10T01:46:17;7.2;6.6;5.2
45788;PMS7003;31492;54.856;26.318;2023-05-10T01:51:19;8.6;6.5;5.2
45788;PMS7003;31492;54.856;26.318;2023-05-10T01:56:28;8.8;6.6;5
45788;PMS7003;31492;54.856;26.318;2023-05-10T02:01:17;8.4;7;5.4
45788;PMS7003;31492;54.856;26.318;2023-05-10T02:06:23;9;7.1;5.7
45788;PMS7003;31492;54.856;26.318;2023-05-10T02:11:17;9.7;7.5;6
45788;PMS7003;31492;54.856;26.318;2023-05-10T02:16:17;9.5;7.6;5.9
45788;PMS7003;31492;54.856;26.318;2023-05-10T02:21:17;8.6;7.2;5.8
45788;PMS7003;31492;54.856;26.318;2023-05-10T02:26:17;8.3;6.8;5.6
45788;PMS7003;31492;54.856;26.318;2023-05-10T02:31:29;8.1;7.3;5.8
45788;PMS7003;31492;54.856;26.318;2023-05-10T02:36:51;9.1;7.6;5.8
45788;PMS7003;31492;54.856;26.318;2023-05-10T02:41:17;9.2;8;6.2
45788;PMS7003;31492;54.856;26.318;2023-05-10T02:46:17;9.5;7.9;5.6
45788;PMS7003;31492;54.856;26.318;2023-05-10T02:51:40;8.4;7.5;5.8
45788;PMS7003;31492;54.856;26.318;2023-05-10T02:56:40;9.1;7.6;6.1
45788;PMS7003;31492;54.856;26.318;2023-05-10T03:01:39;8.8;7.6;5.9
45788;PMS7003;31492;54.856;26.318;2023-05-10T03:06:17;10;8.2;6.7
45788;PMS7003;31492;54.856;26.318;2023-05-10T03:11:57;9.8;8.4;6.6
45788;PMS7003;31492;54.856;26.318;2023-05-10T03:16:19;9.3;8.2;6.2
45788;PMS7003;31492;54.856;26.318;2023-05-10T03:21:41;10.4;8.8;6.4
45788;PMS7003;31492;54.856;26.318;2023-05-10T03:26:43;9.7;8.5;6.4
45788;PMS7003;31492;54.856;26.318;2023-05-10T03:31:29;9.6;7.9;5.7
45788;PMS7003;31492;54.856;26.318;2023-05-10T03:36:17;9.5;8.4;6.4
45788;PMS7003;31492;54.856;26.318;2023-05-10T03:41:31;9.9;8.5;6.6
45788;PMS7003;31492;54.856;26.318;2023-05-10T03:46:17;8.5;6.8;5.5
45788;PMS7003;31492;54.856;26.318;2023-05-10T03:51:17;9.3;8.5;6.3
45788;PMS7003;31492;54.856;26.318;2023-05-10T03:56:29;9.4;7.6;6.2
45788;PMS7003;31492;54.856;26.318;2023-05-10T04:01:17;10.1;8.3;6.7
45788;PMS7003;31492;54.856;26.318;2023-05-10T04:06:29;9.5;8.2;6.3
45788;PMS7003;31492;54.856;26.318;2023-05-10T04:11:17;9.2;7.5;5.9
45788;PMS7003;31492;54.856;26.318;2023-05-10T04:16:23;9.6;8.3;6.4
45788;PMS7003;31492;54.856;26.318;2023-05-10T04:21:17;9.6;8.4;6.5
45788;PMS7003;31492;54.856;26.318;2023-05-10T04:26:17;9.6;8.1;6.4
45788;PMS7003;31492;54.856;26.318;2023-05-10T04:31:39;9.2;8;6.3
45788;PMS7003;31492;54.856;26.318;2023-05-10T04:36:39;10.1;8.5;6.3
45788;PMS7003;31492;54.856;26.318;2023-05-10T04:41:43;10.2;8.4;6.4
45788;PMS7003;31492;54.856;26.318;2023-05-10T04:46:25;9.9;8.3;6.8
45788;PMS7003;31492;54.856;26.318;2023-05-10T04:51:17;11.4;9.6;7.4
45788;PMS7003;31492;54.856;26.318;2023-05-10T04:56:37;10.9;9.4;7.6
45788;PMS7003;31492;54.856;26.318;2023-05-10T05:01:25;11;9.1;7.2
45788;PMS7003;31492;54.856;26.318;2023-05-10T05:06:51;11;9.7;7.6
45788;PMS7003;31492;54.856;26.318;2023-05-10T05:11:17;13.2;11;8.4
45788;PMS7003;31492;54.856;26.318;2023-05-10T05:16:25;11;9.7;8.1
45788;PMS7003;31492;54.856;26.318;2023-05-10T05:21:29;12.1;10.5;8.3
45788;PMS7003;31492;54.856;26.318;2023-05-10T05:26:17;11.8;10.2;8.1
45788;PMS7003;31492;54.856;26.318;2023-05-10T05:31:17;10.9;10.1;8
45788;PMS7003;31492;54.856;26.318;2023-05-10T05:36:17;12.3;10.9;8.6
45788;PMS7003;31492;54.856;26.318;2023-05-10T05:41:35;13.1;11.1;9.1
45788;PMS7003;31492;54.856;26.318;2023-05-10T05:46:31;13.8;11.7;9
45788;PMS7003;31492;54.856;26.318;2023-05-10T05:51:17;12;10.6;8.6
45788;PMS7003;31492;54.856;26.318;2023-05-10T05:56:17;14.4;12.3;9.4
45788;PMS7003;31492;54.856;26.318;2023-05-10T06:01:47;14.2;12.8;10.2
45788;PMS7003;31492;54.856;26.318;2023-05-10T06:06:17;14.8;12.7;9.7
45788;PMS7003;31492;54.856;26.318;2023-05-10T12:26:44;4;2.6;2
45788;PMS7003;31492;54.856;26.318;2023-05-10T12:31:48;3.1;2.5;2
45788;PMS7003;31492;54.856;26.318;2023-05-10T12:36:54;2.7;2.1;1.7
45788;PMS7003;31492;54.856;26.318;2023-05-10T12:41:31;2.4;2.3;2
45788;PMS7003;31492;54.856;26.318;2023-05-10T13:06:27;2.8;2.5;2
45788;PMS7003;31492;54.856;26.318;2023-05-10T13:11:39;2.8;2.5;2.1
45788;PMS7003;31492;54.856;26.318;2023-05-10T13:16:25;2.9;2.6;2.3
45788;PMS7003;31492;54.856;26.318;2023-05-10T13:21:37;2.7;2.5;2
45788;PMS7003;31492;54.856;26.318;2023-05-10T13:26:17;3.4;2.6;2.1
45788;PMS7003;31492;54.856;26.318;2023-05-10T13:31:34;3;2.9;2.2
45788;PMS7003;31492;54.856;26.318;2023-05-10T13:36:17;2.8;2.4;2.1
45788;PMS7003;31492;54.856;26.318;2023-05-10T13:41:18;3.1;2.6;2.2
45788;PMS7003;31492;54.856;26.318;2023-05-10T13:46:17;3.2;2.9;2.4
45788;PMS7003;31492;54.856;26.318;2023-05-10T13:51:17;2.8;2.4;2
45788;PMS7003;31492;54.856;26.318;2023-05-10T13:56:36;3.1;2.6;2.1
45788;PMS7003;31492;54.856;26.318;2023-05-10T14:01:17;3.3;2.5;2
45788;PMS7003;31492;54.856;26.318;2023-05-10T14:06:17;2.9;2.4;2
45788;PMS7003;31492;54.856;26.318;2023-05-10T14:11:17;2.8;2.4;2
45788;PMS7003;31492;54.856;26.318;2023-05-10T14:16:17;2.7;2.4;2.1
45788;PMS7003;31492;54.856;26.318;2023-05-10T14:21:37;2.5;2.2;1.9
45788;PMS7003;31492;54.856;26.318;2023-05-10T14:26:23;3.8;2.6;2.1
45788;PMS7003;31492;54.856;26.318;2023-05-10T14:31:25;3.6;2.7;2.3
45788;PMS7003;31492;54.856;26.318;2023-05-10T14:36:43;3.1;2.6;2.2
45788;PMS7003;31492;54.856;26.318;2023-05-10T14:41:25;3;2.2;1.8
45788;PMS7003;31492;54.856;26.318;2023-05-10T14:46:31;3.4;2.8;2.5
45788;PMS7003;31492;54.856;26.318;2023-05-10T14:51:43;2.7;2.7;2.3
45788;PMS7003;31492;54.856;26.318;2023-05-10T14:56:39;3.1;2.6;2.2
45788;PMS7003;31492;54.856;26.318;2023-05-10T15:01:18;3.2;2.5;2.1
45788;PMS7003;31492;54.856;26.318;2023-05-10T15:06:22;2.7;2.4;2
45788;PMS7003;31492;54.856;26.318;2023-05-10T15:11:18;3.3;2.8;2.5
45788;PMS7003;31492;54.856;26.318;2023-05-10T15:16:31;2.8;2.5;2.1
45788;PMS7003;31492;54.856;26.318;2023-05-10T15:21:37;3.1;2.6;2.2
45788;PMS7003;31492;54.856;26.318;2023-05-10T15:26:17;3.3;2.7;2.3
45788;PMS7003;31492;54.856;26.318;2023-05-10T15:31:17;3.5;2.8;1.9
45788;PMS7003;31492;54.856;26.318;2023-05-10T15:36:35;3.5;2.5;2.1
45788;PMS7003;31492;54.856;26.318;2023-05-10T15:41:25;3;2.5;1.9
45788;PMS7003;31492;54.856;26.318;2023-05-10T15:46:31;2.9;2.6;2.1
45788;PMS7003;31492;54.856;26.318;2023-05-10T15:51:17;3.1;2.7;2.2
45788;PMS7003;31492;54.856;26.318;2023-05-10T15:56:32;3.3;2.9;2.4
45788;PMS7003;31492;54.856;26.318;2023-05-10T16:01:40;2.4;2.4;2
45788;PMS7003;31492;54.856;26.318;2023-05-10T16:06:18;2.9;2.6;2
45788;PMS7003;31492;54.856;26.318;2023-05-10T16:11:26;3.3;2.8;2.2
45788;PMS7003;31492;54.856;26.318;2023-05-10T16:16:38;3.7;2.9;2.5
45788;PMS7003;31492;54.856;26.318;2023-05-10T16:21:32;3.8;2.8;2.4
45788;PMS7003;31492;54.856;26.318;2023-05-10T16:26:17;3.3;2.8;2.4
45788;PMS7003;31492;54.856;26.318;2023-05-10T16:31:36;3.4;3;2.3
45788;PMS7003;31492;54.856;26.318;2023-05-10T16:36:23;3.6;3;2.4
45788;PMS7003;31492;54.856;26.318;2023-05-10T16:41:32;2.9;2.6;2.1
45788;PMS7003;31492;54.856;26.318;2023-05-10T16:46:29;3;2.7;2.4
45788;PMS7003;31492;54.856;26.318;2023-05-10T16:51:29;3.1;2.6;2.3
45788;PMS7003;31492;54.856;26.318;2023-05-10T16:56:39;3.6;2.9;2.3
45788;PMS7003;31492;54.856;26.318;2023-05-10T17:01:44;4;3.1;2.5
45788;PMS7003;31492;54.856;26.318;2023-05-10T17:06:26;3;2.7;2.4
45788;PMS7003;31492;54.856;26.318;2023-05-10T17:11:18;3;2.6;2.4
45788;PMS7003;31492;54.856;26.318;2023-05-10T17:16:18;3.9;3;2.4
45788;PMS7003;31492;54.856;26.318;2023-05-10T17:21:26;3.2;2.9;2.4
45788;PMS7003;31492;54.856;26.318;2023-05-10T17:26:18;3.4;2.7;2.4
45788;PMS7003;31492;54.856;26.318;2023-05-10T17:31:18;2.8;2.7;2.3
45788;PMS7003;31492;54.856;26.318;2023-05-10T17:36:18;2.6;2.5;2.2
45788;PMS7003;31492;54.856;26.318;2023-05-10T17:41:30;3.2;2.8;2.4
45788;PMS7003;31492;54.856;26.318;2023-05-10T17:46:18;3.2;2.7;2.2
45788;PMS7003;31492;54.856;26.318;2023-05-10T17:51:26;3.4;2.9;2.4
45788;PMS7003;31492;54.856;26.318;2023-05-10T17:56:30;3.9;3.4;2.8
45788;PMS7003;31492;54.856;26.318;2023-05-10T18:01:36;3.9;3.5;2.6
45788;PMS7003;31492;54.856;26.318;2023-05-10T18:06:18;3.5;3;2.6
45788;PMS7003;31492;54.856;26.318;2023-05-10T18:11:30;3.5;3.2;2.5
45788;PMS7003;31492;54.856;26.318;2023-05-10T18:16:18;4.1;3.1;2.4
45788;PMS7003;31492;54.856;26.318;2023-05-10T18:21:24;3.6;3.2;2.7
45788;PMS7003;31492;54.856;26.318;2023-05-10T18:26:46;3.2;2.8;2.4
45788;PMS7003;31492;54.856;26.318;2023-05-10T18:31:24;3.1;2.8;2.4
45788;PMS7003;31492;54.856;26.318;2023-05-10T18:36:30;4.1;3.3;2.7
45788;PMS7003;31492;54.856;26.318;2023-05-10T18:41:30;3.7;3.1;2.7
45788;PMS7003;31492;54.856;26.318;2023-05-10T18:46:18;3.5;3.1;2.4
45788;PMS7003;31492;54.856;26.318;2023-05-10T18:51:40;3.9;3.2;2.5
45788;PMS7003;31492;54.856;26.318;2023-05-10T18:56:18;3.6;3.2;2.6
45788;PMS7003;31492;54.856;26.318;2023-05-10T19:01:26;3.8;3.3;2.8
45788;PMS7003;31492;54.856;26.318;2023-05-10T19:06:18;3.3;2.9;2.5
45788;PMS7003;31492;54.856;26.318;2023-05-10T19:11:18;4.1;3.4;2.8
45788;PMS7003;31492;54.856;26.318;2023-05-10T19:16:38;4.2;3.8;3.1
45788;PMS7003;31492;54.856;26.318;2023-05-10T19:21:32;4;3.3;2.8
45788;PMS7003;31492;54.856;26.318;2023-05-10T19:26:38;4;3.7;2.8
45788;PMS7003;31492;54.856;26.318;2023-05-10T19:31:28;3.5;3.2;2.6
45788;PMS7003;31492;54.856;26.318;2023-05-10T19:36:30;3.4;3;2.5
45788;PMS7003;31492;54.856;26.318;2023-05-10T19:41:36;4;3.3;2.8
45788;PMS7003;31492;54.856;26.318;2023-05-10T19:46:28;4.2;3.4;2.8
45788;PMS7003;31492;54.856;26.318;2023-05-10T19:51:18;3.8;3;2.7
45788;PMS7003;31492;54.856;26.318;2023-05-10T19:56:38;4.3;3.7;3.1
45788;PMS7003;31492;54.856;26.318;2023-05-10T20:01:18;3.9;3.4;3
45788;PMS7003;31492;54.856;26.318;2023-05-10T20:06:30;4.7;3.8;3.1
45788;PMS7003;31492;54.856;26.318;2023-05-10T20:11:18;4.7;3.6;3.1
45788;PMS7003;31492;54.856;26.318;2023-05-10T20:16:18;4.8;3.9;3.4
45788;PMS7003;31492;54.856;26.318;2023-05-10T20:21:38;4;3.5;2.8
45788;PMS7003;31492;54.856;26.318;2023-05-10T20:26:18;3.9;3.6;3
45788;PMS7003;31492;54.856;26.318;2023-05-10T20:31:32;5.3;3.9;3.3
45788;PMS7003;31492;54.856;26.318;2023-05-10T20:36:18;4.6;3.9;3.3
45788;PMS7003;31492;54.856;26.318;2023-05-10T20:41:18;4.9;4.1;3.3
45788;PMS7003;31492;54.856;26.318;2023-05-10T20:46:44;5;4;3.5
45788;PMS7003;31492;54.856;26.318;2023-05-10T20:51:26;5.3;4.2;3.6
45788;PMS7003;31492;54.856;26.318;2023-05-10T20:56:34;5.4;4.5;3.9
45788;PMS7003;31492;54.856;26.318;2023-05-10T21:01:30;5;4.5;3.8
45788;PMS7003;31492;54.856;26.318;2023-05-10T21:06:18;4.3;4;3.5
45788;PMS7003;31492;54.856;26.318;2023-05-10T21:11:18;5;4.1;3.5
45788;PMS7003;31492;54.856;26.318;2023-05-10T21:16:46;5.4;4.9;4
45788;PMS7003;31492;54.856;26.318;2023-05-10T21:21:32;4.9;4.1;3.3
45788;PMS7003;31492;54.856;26.318;2023-05-10T21:26:46;5.1;4.2;3.7
45788;PMS7003;31492;54.856;26.318;2023-05-10T21:31:46;4.6;4.5;3.6
45788;PMS7003;31492;54.856;26.318;2023-05-10T21:36:32;5.1;4.9;4
45788;PMS7003;31492;54.856;26.318;2023-05-10T21:41:32;5.7;5.1;4.2
45788;PMS7003;31492;54.856;26.318;2023-05-10T21:46:18;6.3;5.1;4.1
45788;PMS7003;31492;54.856;26.318;2023-05-10T21:51:18;5.4;4.7;3.9
45788;PMS7003;31492;54.856;26.318;2023-05-10T21:56:26;5.5;4.7;3.8
45788;PMS7003;31492;54.856;26.318;2023-05-10T22:01:32;5.2;4.5;3.8
45788;PMS7003;31492;54.856;26.318;2023-05-10T22:06:26;6.2;5.1;4.2
45788;PMS7003;31492;54.856;26.318;2023-05-10T22:11:42;5.3;5;4.2
45788;PMS7003;31492;54.856;26.318;2023-05-10T22:16:24;5.1;4.4;3.6
45788;PMS7003;31492;54.856;26.318;2023-05-10T22:21:18;6.1;5;4.3
45788;PMS7003;31492;54.856;26.318;2023-05-10T22:26:32;5.4;4.8;3.9
45788;PMS7003;31492;54.856;26.318;2023-05-10T22:31:25;6.8;5.7;4.8
45788;PMS7003;31492;54.856;26.318;2023-05-10T22:36:26;6.2;5.5;4.6
45788;PMS7003;31492;54.856;26.318;2023-05-10T22:41:31;6.2;5.5;4.8
45788;PMS7003;31492;54.856;26.318;2023-05-10T22:46:26;6.4;5.8;4.6
45788;PMS7003;31492;54.856;26.318;2023-05-10T22:51:32;6.6;6;4.9
45788;PMS7003;31492;54.856;26.318;2023-05-10T22:56:18;4.8;4.5;3.7
45788;PMS7003;31492;54.856;26.318;2023-05-10T23:01:30;7.4;6.4;5.1
45788;PMS7003;31492;54.856;26.318;2023-05-10T23:06:40;6.7;6;4.8
45788;PMS7003;31492;54.856;26.318;2023-05-10T23:11:30;6.4;5.1;4.1
45788;PMS7003;31492;54.856;26.318;2023-05-10T23:16:32;6.1;5.2;4.4
45788;PMS7003;31492;54.856;26.318;2023-05-10T23:21:46;5.3;4.9;4.2
45788;PMS7003;31492;54.856;26.318;2023-05-10T23:26:30;6.5;5.5;4.5
45788;PMS7003;31492;54.856;26.318;2023-05-10T23:31:18;6.7;5.7;4.8
45788;PMS7003;31492;54.856;26.318;2023-05-10T23:36:18;6.5;5.9;5.1
45788;PMS7003;31492;54.856;26.318;2023-05-10T23:41:18;8.6;6.9;5.7
45788;PMS7003;31492;54.856;26.318;2023-05-10T23:46:18;7.6;6.7;5.5
45788;PMS7003;31492;54.856;26.318;2023-05-10T23:51:30;7.8;6.9;5.5
45788;PMS7003;31492;54.856;26.318;2023-05-10T23:56:18;6.1;5.5;4.2
